Paganini — V2CL8 — position and weather

sailwx.info

Track history (hours):
 
Tides and Currents Weather Stations Pressure Air Temp Water Temp Dewpoint Dewpoint Depression Visibility Wind Speed Wind Dir Waves Ship Positions

Paganini

Last reported at 2015-Jan-24 03:22 UTC. Time now 2015-Mar-02 12:46 UTC.
Position N 36°38' E 014°39'.
Warning: this ship's position is 37 days out of date.

Length 90 m; draft 5.8 m.

Type: Cargo ship. MMSI: 305040000.

Date/timePositionNaut miles runAvg speedWind from/ knotsBaromVisibWave heightAir tempDewpointWater temp
2015-Jan-24 03:22N 36°38' E 014°39'810.2
2015-Jan-24 02:34N 36°41' E 014°29'1010.0
2015-Jan-24 01:33N 36°43' E 014°17'10 9.9
2015-Jan-24 00:34N 36°45' E 014°05'1010.1
2015-Jan-23 23:34N 36°48' E 013°53'10 9.7
2015-Jan-23 22:34N 36°50' E 013°41'  
2015-Jan-19 16:06N 35°59' W 005°11'268 7.0
2015-Jan-18 02:08N 38°16' W 009°59'4 7.3
2015-Jan-18 01:33N 38°20' W 010°00'7 7.2
2015-Jan-18 00:33N 38°27' W 010°03'7 6.9
2015-Jan-17 23:33N 38°34' W 010°04'7 6.8
2015-Jan-17 22:33N 38°40' W 010°06'6 6.2
2015-Jan-17 21:34N 38°46' W 010°07'8 6.4
2015-Jan-17 20:21N 38°54' W 010°07'7 6.9
2015-Jan-17 19:19N 39°01' W 010°07'  
Track history (hours):
 
Tides and Currents Weather Stations Pressure Air Temp Water Temp Dewpoint Dewpoint Depression Visibility Wind Speed Wind Dir Waves Ship Positions

Paganini

Last reported at 2015-Jan-24 03:22 UTC. Time now 2015-Mar-02 12:46 UTC.
Position N 36°38' E 014°39'.
Warning: this ship's position is 37 days out of date.

Length 90 m; draft 5.8 m.

Type: Cargo ship. MMSI: 305040000.

Date/timePositionNaut miles runAvg speedWind from/ knotsBaromVisibWave heightAir tempDewpointWater temp
2015-Jan-24 03:22N 36°38' E 014°39'810.2
2015-Jan-24 02:34N 36°41' E 014°29'1010.0
2015-Jan-24 01:33N 36°43' E 014°17'10 9.9
2015-Jan-24 00:34N 36°45' E 014°05'1010.1
2015-Jan-23 23:34N 36°48' E 013°53'10 9.7
2015-Jan-23 22:34N 36°50' E 013°41'  
2015-Jan-19 16:06N 35°59' W 005°11'268 7.0
2015-Jan-18 02:08N 38°16' W 009°59'4 7.3
2015-Jan-18 01:33N 38°20' W 010°00'7 7.2
2015-Jan-18 00:33N 38°27' W 010°03'7 6.9
2015-Jan-17 23:33N 38°34' W 010°04'7 6.8
2015-Jan-17 22:33N 38°40' W 010°06'6 6.2
2015-Jan-17 21:34N 38°46' W 010°07'8 6.4
2015-Jan-17 20:21N 38°54' W 010°07'7 6.9
2015-Jan-17 19:19N 39°01' W 010°07'  

Dump ship's entire track history